CheckWX is a tool to help pilots better visualize weather data.  It is not intended as a substitute for an official pre-flight weather briefing.

09:46:40 UTC

CYSJ TAF
Saint John Airport
Saint John, Canada
TAF CYSJ 280538Z 2806/2818 35010KT P6SM -SN SCT015 OVC030 TEMPO 2806/2809 4SM -SHSN BKN009 OVC015 FM280900 35010KT P6SM SCT015 OVC030 TEMPO 2809/2812 5SM -SHSN OVC015 FM281200 35012KT P6SM BKN030 TEMPO 2812/2816 P6SM -SHSN BKN020 FM281600 35012G22KT P6SM BKN030 RMK NXT FCST BY 281200Z

Jan-28@
06:00 UTC

Jan-28 @ 06:00 UTC

Jan-28@
09:00 UTC

Jan-28 @ 09:00 UTC

TAF CYSJ 280538Z 2806/2818 35010KT P6SM -SN SCT015 OVC030

Expired

Wind
  • 350° at 10 KTS
Conditions
Light Snow
Cloud Levels
  • Scattered at 1,500' AGL
  • Overcast at 3,000' AGL

Jan-28@
06:00 UTC

Jan-28 @ 06:00 UTC

Jan-28@
09:00 UTC

Jan-28 @ 09:00 UTC

TEMPO 2806/2809 4SM -SHSN BKN009 OVC015

Expired

Conditions
Light Snow
Cloud Levels
  • Broken at 900' AGL
  • Overcast at 1,500' AGL

Jan-28@
09:00 UTC

Jan-28 @ 09:00 UTC

Jan-28@
12:00 UTC

Jan-28 @ 12:00 UTC

FM280900 35010KT P6SM SCT015 OVC030

From

From Standard forecast or significant change

Wind
  • 350° at 10 KTS
Cloud Levels
  • Scattered at 1,500' AGL
  • Overcast at 3,000' AGL

Jan-28@
09:00 UTC

Jan-28 @ 09:00 UTC

Jan-28@
12:00 UTC

Jan-28 @ 12:00 UTC

TEMPO 2809/2812 5SM -SHSN OVC015

Temporary

Temporary Changes expected for less than half the time period

Conditions
Light Snow
Cloud Levels
  • Overcast at 1,500' AGL

Jan-28@
12:00 UTC

Jan-28 @ 12:00 UTC

Jan-28@
16:00 UTC

Jan-28 @ 16:00 UTC

FM281200 35012KT P6SM BKN030

From

From Standard forecast or significant change

Wind
  • 350° at 12 KTS
Cloud Levels
  • Broken at 3,000' AGL

Jan-28@
12:00 UTC

Jan-28 @ 12:00 UTC

Jan-28@
16:00 UTC

Jan-28 @ 16:00 UTC

TEMPO 2812/2816 P6SM -SHSN BKN020

Temporary

Temporary Changes expected for less than half the time period

Conditions
Light Snow
Cloud Levels
  • Broken at 2,000' AGL

Jan-28@
16:00 UTC

Jan-28 @ 16:00 UTC

Jan-28@
18:00 UTC

Jan-28 @ 18:00 UTC

FM281600 35012G22KT P6SM BKN030 RMK NXT FCST BY 281200Z

From

From Standard forecast or significant change

Wind
  • 350° at 12 KTS
  • {Gusting to 22 KTS
Cloud Levels
  • Broken at 3,000' AGL